sensor_id;sensor_type;location;lat;lon;timestamp;P1;durP1;ratioP1;P2;durP2;ratioP2
6093;SDS011;19964;42.060;24.700;2023-07-30T00:00:57;4.67;;;4.23;;
6093;SDS011;19964;42.060;24.700;2023-07-30T00:03:26;4.37;;;4.07;;
6093;SDS011;19964;42.060;24.700;2023-07-30T00:05:53;4.13;;;3.83;;
6093;SDS011;19964;42.060;24.700;2023-07-30T00:08:20;4.27;;;3.90;;
6093;SDS011;19964;42.060;24.700;2023-07-30T00:10:47;4.43;;;4.03;;
6093;SDS011;19964;42.060;24.700;2023-07-30T00:13:15;4.83;;;4.43;;
6093;SDS011;19964;42.060;24.700;2023-07-30T00:15:42;3.93;;;3.73;;
6093;SDS011;19964;42.060;24.700;2023-07-30T00:18:12;3.90;;;3.60;;
6093;SDS011;19964;42.060;24.700;2023-07-30T00:20:41;4.20;;;3.57;;
6093;SDS011;19964;42.060;24.700;2023-07-30T00:23:09;4.50;;;4.07;;
6093;SDS011;19964;42.060;24.700;2023-07-30T00:25:36;5.10;;;3.77;;
6093;SDS011;19964;42.060;24.700;2023-07-30T00:28:03;4.67;;;4.37;;
6093;SDS011;19964;42.060;24.700;2023-07-30T00:30:30;4.37;;;3.93;;
6093;SDS011;19964;42.060;24.700;2023-07-30T00:32:57;4.70;;;4.30;;
6093;SDS011;19964;42.060;24.700;2023-07-30T00:35:25;4.07;;;3.83;;
6093;SDS011;19964;42.060;24.700;2023-07-30T00:37:56;4.33;;;3.93;;
6093;SDS011;19964;42.060;24.700;2023-07-30T00:40:23;4.03;;;3.60;;
6093;SDS011;19964;42.060;24.700;2023-07-30T00:42:50;5.57;;;4.10;;
6093;SDS011;19964;42.060;24.700;2023-07-30T00:45:17;3.90;;;3.70;;
6093;SDS011;19964;42.060;24.700;2023-07-30T00:47:45;4.10;;;3.73;;
6093;SDS011;19964;42.060;24.700;2023-07-30T00:50:12;4.63;;;4.23;;
6093;SDS011;19964;42.060;24.700;2023-07-30T00:52:41;4.07;;;3.77;;
6093;SDS011;19964;42.060;24.700;2023-07-30T00:55:11;4.87;;;4.00;;
6093;SDS011;19964;42.060;24.700;2023-07-30T00:57:39;4.20;;;3.90;;
6093;SDS011;19964;42.060;24.700;2023-07-30T01:00:08;3.80;;;3.50;;
6093;SDS011;19964;42.060;24.700;2023-07-30T01:02:36;4.57;;;4.17;;
6093;SDS011;19964;42.060;24.700;2023-07-30T01:05:03;4.17;;;3.77;;
6093;SDS011;19964;42.060;24.700;2023-07-30T01:07:31;4.77;;;4.33;;
6093;SDS011;19964;42.060;24.700;2023-07-30T01:09:58;4.20;;;3.90;;
6093;SDS011;19964;42.060;24.700;2023-07-30T01:12:28;4.90;;;3.83;;
6093;SDS011;19964;42.060;24.700;2023-07-30T01:14:56;4.47;;;4.10;;
6093;SDS011;19964;42.060;24.700;2023-07-30T01:17:25;4.33;;;4.00;;
6093;SDS011;19964;42.060;24.700;2023-07-30T01:19:52;4.47;;;4.17;;
6093;SDS011;19964;42.060;24.700;2023-07-30T01:22:22;4.63;;;4.23;;
6093;SDS011;19964;42.060;24.700;2023-07-30T01:24:50;4.60;;;4.10;;
6093;SDS011;19964;42.060;24.700;2023-07-30T01:27:19;4.23;;;3.93;;
6093;SDS011;19964;42.060;24.700;2023-07-30T01:29:52;4.53;;;4.17;;
6093;SDS011;19964;42.060;24.700;2023-07-30T01:32:23;4.50;;;4.10;;
6093;SDS011;19964;42.060;24.700;2023-07-30T01:34:55;4.20;;;3.90;;
6093;SDS011;19964;42.060;24.700;2023-07-30T01:37:25;4.03;;;3.73;;
6093;SDS011;19964;42.060;24.700;2023-07-30T01:39:52;8.23;;;4.03;;
6093;SDS011;19964;42.060;24.700;2023-07-30T01:42:20;4.33;;;4.03;;
6093;SDS011;19964;42.060;24.700;2023-07-30T01:44:47;6.83;;;4.70;;
6093;SDS011;19964;42.060;24.700;2023-07-30T01:47:14;4.60;;;4.30;;
6093;SDS011;19964;42.060;24.700;2023-07-30T01:49:41;4.50;;;4.20;;
6093;SDS011;19964;42.060;24.700;2023-07-30T01:52:08;4.40;;;4.10;;
6093;SDS011;19964;42.060;24.700;2023-07-30T01:54:36;4.43;;;4.03;;
6093;SDS011;19964;42.060;24.700;2023-07-30T01:57:03;4.30;;;4.00;;
6093;SDS011;19964;42.060;24.700;2023-07-30T01:59:30;4.47;;;4.07;;
6093;SDS011;19964;42.060;24.700;2023-07-30T02:01:57;4.70;;;4.27;;
6093;SDS011;19964;42.060;24.700;2023-07-30T02:04:24;4.60;;;4.17;;
6093;SDS011;19964;42.060;24.700;2023-07-30T02:06:51;4.67;;;4.37;;
6093;SDS011;19964;42.060;24.700;2023-07-30T02:09:18;4.67;;;4.30;;
6093;SDS011;19964;42.060;24.700;2023-07-30T02:11:48;4.87;;;4.50;;
6093;SDS011;19964;42.060;24.700;2023-07-30T02:14:15;4.73;;;4.33;;
6093;SDS011;19964;42.060;24.700;2023-07-30T02:16:42;4.40;;;4.10;;
6093;SDS011;19964;42.060;24.700;2023-07-30T02:19:09;4.60;;;4.20;;
6093;SDS011;19964;42.060;24.700;2023-07-30T02:21:36;4.47;;;4.17;;
6093;SDS011;19964;42.060;24.700;2023-07-30T02:24:07;5.00;;;4.33;;
6093;SDS011;19964;42.060;24.700;2023-07-30T02:26:36;5.00;;;4.60;;
6093;SDS011;19964;42.060;24.700;2023-07-30T02:29:05;4.67;;;4.37;;
6093;SDS011;19964;42.060;24.700;2023-07-30T02:31:32;5.30;;;4.60;;
6093;SDS011;19964;42.060;24.700;2023-07-30T02:33:59;4.83;;;4.53;;
6093;SDS011;19964;42.060;24.700;2023-07-30T02:36:26;4.73;;;4.33;;
6093;SDS011;19964;42.060;24.700;2023-07-30T02:38:53;5.33;;;4.77;;
6093;SDS011;19964;42.060;24.700;2023-07-30T02:41:20;4.90;;;4.60;;
6093;SDS011;19964;42.060;24.700;2023-07-30T02:43:47;4.70;;;4.40;;
6093;SDS011;19964;42.060;24.700;2023-07-30T02:46:15;5.00;;;4.70;;
6093;SDS011;19964;42.060;24.700;2023-07-30T02:48:42;5.37;;;4.87;;
6093;SDS011;19964;42.060;24.700;2023-07-30T02:51:09;5.17;;;4.77;;
6093;SDS011;19964;42.060;24.700;2023-07-30T02:53:36;5.37;;;4.87;;
6093;SDS011;19964;42.060;24.700;2023-07-30T02:56:03;5.40;;;5.00;;
6093;SDS011;19964;42.060;24.700;2023-07-30T02:58:30;4.80;;;4.50;;
6093;SDS011;19964;42.060;24.700;2023-07-30T03:01:04;5.27;;;4.80;;
6093;SDS011;19964;42.060;24.700;2023-07-30T03:03:34;6.23;;;4.70;;
6093;SDS011;19964;42.060;24.700;2023-07-30T03:06:01;6.10;;;5.50;;
6093;SDS011;19964;42.060;24.700;2023-07-30T03:08:28;5.13;;;4.73;;
6093;SDS011;19964;42.060;24.700;2023-07-30T03:10:57;4.73;;;4.40;;
6093;SDS011;19964;42.060;24.700;2023-07-30T03:13:24;5.13;;;4.67;;
6093;SDS011;19964;42.060;24.700;2023-07-30T03:15:51;5.20;;;4.70;;
6093;SDS011;19964;42.060;24.700;2023-07-30T03:18:18;5.63;;;4.80;;
6093;SDS011;19964;42.060;24.700;2023-07-30T03:20:47;4.67;;;4.37;;
6093;SDS011;19964;42.060;24.700;2023-07-30T03:23:14;5.00;;;4.60;;
6093;SDS011;19964;42.060;24.700;2023-07-30T03:25:41;5.30;;;4.90;;
6093;SDS011;19964;42.060;24.700;2023-07-30T03:28:08;5.30;;;4.90;;
6093;SDS011;19964;42.060;24.700;2023-07-30T03:30:35;4.87;;;4.47;;
6093;SDS011;19964;42.060;24.700;2023-07-30T03:33:02;4.90;;;4.53;;
6093;SDS011;19964;42.060;24.700;2023-07-30T03:35:29;4.80;;;4.40;;
6093;SDS011;19964;42.060;24.700;2023-07-30T03:37:57;4.47;;;4.17;;
6093;SDS011;19964;42.060;24.700;2023-07-30T03:40:24;5.57;;;5.00;;
6093;SDS011;19964;42.060;24.700;2023-07-30T03:42:53;5.30;;;4.80;;
6093;SDS011;19964;42.060;24.700;2023-07-30T03:45:21;6.40;;;4.70;;
6093;SDS011;19964;42.060;24.700;2023-07-30T03:47:48;4.87;;;4.33;;
6093;SDS011;19964;42.060;24.700;2023-07-30T03:50:15;4.80;;;4.37;;
6093;SDS011;19964;42.060;24.700;2023-07-30T03:52:42;4.97;;;4.20;;
6093;SDS011;19964;42.060;24.700;2023-07-30T03:55:10;5.07;;;4.50;;
6093;SDS011;19964;42.060;24.700;2023-07-30T03:57:37;4.43;;;4.13;;
6093;SDS011;19964;42.060;24.700;2023-07-30T04:00:05;4.10;;;3.80;;
6093;SDS011;19964;42.060;24.700;2023-07-30T04:02:33;4.57;;;4.17;;
6093;SDS011;19964;42.060;24.700;2023-07-30T04:05:00;4.17;;;3.87;;
6093;SDS011;19964;42.060;24.700;2023-07-30T04:07:27;5.00;;;4.50;;
6093;SDS011;19964;42.060;24.700;2023-07-30T04:09:54;4.33;;;3.93;;
6093;SDS011;19964;42.060;24.700;2023-07-30T04:12:23;4.87;;;4.40;;
6093;SDS011;19964;42.060;24.700;2023-07-30T04:14:50;4.93;;;4.37;;
6093;SDS011;19964;42.060;24.700;2023-07-30T04:17:17;4.47;;;4.17;;
6093;SDS011;19964;42.060;24.700;2023-07-30T04:19:44;4.18;;;3.92;;
6093;SDS011;19964;42.060;24.700;2023-07-30T04:22:11;4.38;;;4.00;;
6093;SDS011;19964;42.060;24.700;2023-07-30T04:24:38;4.03;;;3.72;;
6093;SDS011;19964;42.060;24.700;2023-07-30T04:27:05;4.65;;;4.10;;
6093;SDS011;19964;42.060;24.700;2023-07-30T04:29:34;4.93;;;4.43;;
6093;SDS011;19964;42.060;24.700;2023-07-30T04:32:01;4.32;;;4.03;;
6093;SDS011;19964;42.060;24.700;2023-07-30T04:49:09;4.50;;;3.92;;
6093;SDS011;19964;42.060;24.700;2023-07-30T04:51:36;5.20;;;4.50;;
6093;SDS011;19964;42.060;24.700;2023-07-30T04:54:04;4.70;;;4.30;;
6093;SDS011;19964;42.060;24.700;2023-07-30T04:56:31;6.47;;;4.28;;
6093;SDS011;19964;42.060;24.700;2023-07-30T04:58:58;8.27;;;5.30;;
6093;SDS011;19964;42.060;24.700;2023-07-30T07:01:35;5.25;;;4.85;;
6093;SDS011;19964;42.060;24.700;2023-07-30T07:04:04;8.55;;;4.72;;
6093;SDS011;19964;42.060;24.700;2023-07-30T07:06:31;5.30;;;4.80;;
6093;SDS011;19964;42.060;24.700;2023-07-30T07:08:58;4.40;;;4.07;;
6093;SDS011;19964;42.060;24.700;2023-07-30T07:11:25;5.10;;;4.70;;
6093;SDS011;19964;42.060;24.700;2023-07-30T07:13:52;6.13;;;4.00;;
6093;SDS011;19964;42.060;24.700;2023-07-30T07:16:19;4.43;;;4.07;;
6093;SDS011;19964;42.060;24.700;2023-07-30T07:18:46;4.72;;;4.30;;
6093;SDS011;19964;42.060;24.700;2023-07-30T07:21:15;5.07;;;4.68;;
6093;SDS011;19964;42.060;24.700;2023-07-30T07:23:42;5.03;;;4.53;;
6093;SDS011;19964;42.060;24.700;2023-07-30T07:26:10;7.03;;;4.70;;
6093;SDS011;19964;42.060;24.700;2023-07-30T07:28:37;5.07;;;4.57;;
6093;SDS011;19964;42.060;24.700;2023-07-30T07:31:05;7.85;;;4.63;;
6093;SDS011;19964;42.060;24.700;2023-07-30T07:33:32;4.25;;;3.97;;
6093;SDS011;19964;42.060;24.700;2023-07-30T07:36:03;4.88;;;4.47;;
6093;SDS011;19964;42.060;24.700;2023-07-30T07:38:32;4.40;;;4.10;;
6093;SDS011;19964;42.060;24.700;2023-07-30T07:41:03;5.18;;;3.90;;
6093;SDS011;19964;42.060;24.700;2023-07-30T07:43:30;4.70;;;4.30;;
6093;SDS011;19964;42.060;24.700;2023-07-30T07:45:57;7.88;;;4.00;;
6093;SDS011;19964;42.060;24.700;2023-07-30T07:48:24;5.53;;;3.97;;
6093;SDS011;19964;42.060;24.700;2023-07-30T07:50:51;4.55;;;4.25;;
6093;SDS011;19964;42.060;24.700;2023-07-30T07:53:18;5.88;;;4.43;;
6093;SDS011;19964;42.060;24.700;2023-07-30T07:55:47;4.60;;;3.67;;
6093;SDS011;19964;42.060;24.700;2023-07-30T07:58:14;5.40;;;4.20;;
6093;SDS011;19964;42.060;24.700;2023-07-30T08:00:41;5.18;;;4.20;;
6093;SDS011;19964;42.060;24.700;2023-07-30T08:03:08;4.50;;;4.10;;
6093;SDS011;19964;42.060;24.700;2023-07-30T08:05:35;5.03;;;4.07;;
6093;SDS011;19964;42.060;24.700;2023-07-30T08:08:03;6.13;;;4.10;;
6093;SDS011;19964;42.060;24.700;2023-07-30T08:10:30;4.43;;;4.03;;
6093;SDS011;19964;42.060;24.700;2023-07-30T08:12:58;4.50;;;4.20;;
6093;SDS011;19964;42.060;24.700;2023-07-30T08:15:28;5.78;;;4.10;;
6093;SDS011;19964;42.060;24.700;2023-07-30T08:17:55;4.25;;;3.88;;
6093;SDS011;19964;42.060;24.700;2023-07-30T08:20:22;6.22;;;3.88;;
6093;SDS011;19964;42.060;24.700;2023-07-30T08:22:49;5.72;;;4.10;;
6093;SDS011;19964;42.060;24.700;2023-07-30T08:25:16;4.90;;;3.85;;
6093;SDS011;19964;42.060;24.700;2023-07-30T08:27:43;5.88;;;4.18;;
6093;SDS011;19964;42.060;24.700;2023-07-30T08:30:13;4.35;;;3.67;;
6093;SDS011;19964;42.060;24.700;2023-07-30T08:32:40;4.22;;;3.78;;
6093;SDS011;19964;42.060;24.700;2023-07-30T08:35:08;4.28;;;3.88;;
6093;SDS011;19964;42.060;24.700;2023-07-30T08:37:36;4.00;;;3.70;;
6093;SDS011;19964;42.060;24.700;2023-07-30T08:40:03;4.95;;;4.03;;
6093;SDS011;19964;42.060;24.700;2023-07-30T08:42:31;5.22;;;3.85;;
6093;SDS011;19964;42.060;24.700;2023-07-30T08:45:01;4.85;;;3.95;;
6093;SDS011;19964;42.060;24.700;2023-07-30T08:47:33;5.30;;;3.85;;
6093;SDS011;19964;42.060;24.700;2023-07-30T08:50:00;6.88;;;4.40;;
6093;SDS011;19964;42.060;24.700;2023-07-30T08:52:28;6.35;;;4.25;;
6093;SDS011;19964;42.060;24.700;2023-07-30T08:54:56;10.60;;;4.18;;
6093;SDS011;19964;42.060;24.700;2023-07-30T08:57:26;5.80;;;4.13;;
6093;SDS011;19964;42.060;24.700;2023-07-30T08:59:57;4.28;;;3.85;;
6093;SDS011;19964;42.060;24.700;2023-07-30T09:02:30;5.30;;;3.88;;
6093;SDS011;19964;42.060;24.700;2023-07-30T09:05:04;4.32;;;3.90;;
6093;SDS011;19964;42.060;24.700;2023-07-30T09:07:32;7.55;;;3.80;;
6093;SDS011;19964;42.060;24.700;2023-07-30T09:09:59;6.13;;;4.10;;
6093;SDS011;19964;42.060;24.700;2023-07-30T09:12:28;5.00;;;4.30;;
6093;SDS011;19964;42.060;24.700;2023-07-30T09:14:58;4.25;;;3.95;;
6093;SDS011;19964;42.060;24.700;2023-07-30T09:17:26;4.55;;;4.15;;
6093;SDS011;19964;42.060;24.700;2023-07-30T09:19:54;4.30;;;3.60;;
6093;SDS011;19964;42.060;24.700;2023-07-30T09:22:24;4.35;;;4.05;;
6093;SDS011;19964;42.060;24.700;2023-07-30T09:24:52;5.43;;;3.83;;
6093;SDS011;19964;42.060;24.700;2023-07-30T09:27:20;4.15;;;3.80;;
6093;SDS011;19964;42.060;24.700;2023-07-30T09:29:50;6.43;;;3.88;;
6093;SDS011;19964;42.060;24.700;2023-07-30T09:32:19;4.20;;;3.80;;
6093;SDS011;19964;42.060;24.700;2023-07-30T09:34:46;4.35;;;4.05;;
6093;SDS011;19964;42.060;24.700;2023-07-30T09:37:15;5.88;;;4.13;;
6093;SDS011;19964;42.060;24.700;2023-07-30T09:39:42;7.70;;;4.40;;
6093;SDS011;19964;42.060;24.700;2023-07-30T09:42:10;4.75;;;4.03;;
6093;SDS011;19964;42.060;24.700;2023-07-30T09:44:37;7.65;;;4.47;;
6093;SDS011;19964;42.060;24.700;2023-07-30T09:47:08;7.07;;;4.18;;
6093;SDS011;19964;42.060;24.700;2023-07-30T09:49:36;5.43;;;4.20;;
6093;SDS011;19964;42.060;24.700;2023-07-30T09:52:03;4.22;;;3.92;;
6093;SDS011;19964;42.060;24.700;2023-07-30T09:54:33;5.55;;;4.30;;
6093;SDS011;19964;42.060;24.700;2023-07-30T09:57:00;5.85;;;4.20;;
6093;SDS011;19964;42.060;24.700;2023-07-30T09:59:29;5.00;;;4.30;;
6093;SDS011;19964;42.060;24.700;2023-07-30T10:01:56;4.75;;;4.30;;
6093;SDS011;19964;42.060;24.700;2023-07-30T10:04:24;6.30;;;4.60;;
6093;SDS011;19964;42.060;24.700;2023-07-30T10:06:55;4.32;;;4.00;;
6093;SDS011;19964;42.060;24.700;2023-07-30T10:09:25;4.45;;;4.15;;
6093;SDS011;19964;42.060;24.700;2023-07-30T10:11:58;4.40;;;4.10;;
6093;SDS011;19964;42.060;24.700;2023-07-30T10:14:25;4.25;;;4.00;;
6093;SDS011;19964;42.060;24.700;2023-07-30T10:16:55;4.50;;;4.13;;
6093;SDS011;19964;42.060;24.700;2023-07-30T10:19:25;4.40;;;4.00;;
6093;SDS011;19964;42.060;24.700;2023-07-30T10:21:53;9.45;;;4.22;;
6093;SDS011;19964;42.060;24.700;2023-07-30T10:24:25;4.35;;;3.92;;
6093;SDS011;19964;42.060;24.700;2023-07-30T10:26:53;4.32;;;4.03;;
6093;SDS011;19964;42.060;24.700;2023-07-30T10:29:24;4.22;;;3.83;;
6093;SDS011;19964;42.060;24.700;2023-07-30T10:31:52;5.75;;;4.18;;
6093;SDS011;19964;42.060;24.700;2023-07-30T10:34:20;3.97;;;3.67;;
6093;SDS011;19964;42.060;24.700;2023-07-30T10:36:48;4.60;;;3.90;;
6093;SDS011;19964;42.060;24.700;2023-07-30T10:39:16;4.43;;;4.00;;
6093;SDS011;19964;42.060;24.700;2023-07-30T10:41:44;7.78;;;4.00;;
6093;SDS011;19964;42.060;24.700;2023-07-30T10:44:19;5.72;;;4.05;;
6093;SDS011;19964;42.060;24.700;2023-07-30T10:49:21;4.00;;;3.63;;
6093;SDS011;19964;42.060;24.700;2023-07-30T10:51:49;5.10;;;3.72;;
6093;SDS011;19964;42.060;24.700;2023-07-30T10:54:18;4.57;;;4.18;;
6093;SDS011;19964;42.060;24.700;2023-07-30T10:56:45;6.22;;;3.67;;
6093;SDS011;19964;42.060;24.700;2023-07-30T10:59:13;5.95;;;3.78;;
6093;SDS011;19964;42.060;24.700;2023-07-30T11:01:41;3.88;;;3.58;;
6093;SDS011;19964;42.060;24.700;2023-07-30T11:04:17;4.82;;;3.70;;
6093;SDS011;19964;42.060;24.700;2023-07-30T11:06:46;5.20;;;3.67;;
6093;SDS011;19964;42.060;24.700;2023-07-30T11:09:18;6.20;;;3.67;;
6093;SDS011;19964;42.060;24.700;2023-07-30T11:11:45;3.92;;;3.63;;
6093;SDS011;19964;42.060;24.700;2023-07-30T11:14:14;5.13;;;3.20;;
6093;SDS011;19964;42.060;24.700;2023-07-30T11:16:47;4.28;;;3.58;;
6093;SDS011;19964;42.060;24.700;2023-07-30T11:19:19;3.80;;;3.50;;
6093;SDS011;19964;42.060;24.700;2023-07-30T11:21:47;4.30;;;3.88;;
6093;SDS011;19964;42.060;24.700;2023-07-30T11:24:14;5.55;;;3.55;;
6093;SDS011;19964;42.060;24.700;2023-07-30T11:26:41;4.03;;;3.70;;
6093;SDS011;19964;42.060;24.700;2023-07-30T11:29:15;3.40;;;3.20;;
6093;SDS011;19964;42.060;24.700;2023-07-30T11:31:43;3.60;;;3.30;;
6093;SDS011;19964;42.060;24.700;2023-07-30T11:34:13;4.10;;;3.65;;
6093;SDS011;19964;42.060;24.700;2023-07-30T11:36:42;3.88;;;3.58;;
6093;SDS011;19964;42.060;24.700;2023-07-30T11:39:12;4.18;;;3.25;;
6093;SDS011;19964;42.060;24.700;2023-07-30T11:41:40;3.33;;;3.13;;
6093;SDS011;19964;42.060;24.700;2023-07-30T11:44:08;6.30;;;3.30;;
6093;SDS011;19964;42.060;24.700;2023-07-30T11:46:53;3.80;;;3.50;;
6093;SDS011;19964;42.060;24.700;2023-07-30T11:49:23;4.15;;;3.67;;
6093;SDS011;19964;42.060;24.700;2023-07-30T11:52:05;3.63;;;3.33;;
6093;SDS011;19964;42.060;24.700;2023-07-30T11:54:32;3.60;;;3.30;;
6093;SDS011;19964;42.060;24.700;2023-07-30T11:57:02;4.43;;;3.70;;
6093;SDS011;19964;42.060;24.700;2023-07-30T11:59:30;5.53;;;3.58;;
6093;SDS011;19964;42.060;24.700;2023-07-30T12:01:58;3.60;;;3.30;;
6093;SDS011;19964;42.060;24.700;2023-07-30T12:04:25;3.40;;;3.10;;
6093;SDS011;19964;42.060;24.700;2023-07-30T12:06:57;3.95;;;3.60;;
6093;SDS011;19964;42.060;24.700;2023-07-30T12:09:25;3.75;;;3.20;;
6093;SDS011;19964;42.060;24.700;2023-07-30T12:11:53;3.40;;;3.20;;
6093;SDS011;19964;42.060;24.700;2023-07-30T12:14:24;4.85;;;3.30;;
6093;SDS011;19964;42.060;24.700;2023-07-30T12:17:04;3.67;;;3.38;;
6093;SDS011;19964;42.060;24.700;2023-07-30T12:19:31;3.45;;;3.10;;
6093;SDS011;19964;42.060;24.700;2023-07-30T12:22:02;3.72;;;3.50;;
6093;SDS011;19964;42.060;24.700;2023-07-30T12:24:31;3.92;;;3.67;;
6093;SDS011;19964;42.060;24.700;2023-07-30T12:26:59;3.92;;;3.20;;
6093;SDS011;19964;42.060;24.700;2023-07-30T17:37:06;4.65;;;4.25;;
6093;SDS011;19964;42.060;24.700;2023-07-30T17:39:34;5.57;;;4.55;;
6093;SDS011;19964;42.060;24.700;2023-07-30T17:42:02;5.63;;;4.03;;
6093;SDS011;19964;42.060;24.700;2023-07-30T17:44:29;5.72;;;4.10;;
6093;SDS011;19964;42.060;24.700;2023-07-30T17:46:56;4.47;;;3.70;;
6093;SDS011;19964;42.060;24.700;2023-07-30T17:49:23;4.22;;;3.92;;
6093;SDS011;19964;42.060;24.700;2023-07-30T17:51:52;4.15;;;3.85;;
6093;SDS011;19964;42.060;24.700;2023-07-30T17:54:19;4.15;;;3.80;;
6093;SDS011;19964;42.060;24.700;2023-07-30T17:56:46;4.40;;;4.10;;
6093;SDS011;19964;42.060;24.700;2023-07-30T17:59:13;3.75;;;3.45;;
6093;SDS011;19964;42.060;24.700;2023-07-30T18:01:40;4.18;;;3.88;;
6093;SDS011;19964;42.060;24.700;2023-07-30T18:04:07;5.68;;;3.55;;
6093;SDS011;19964;42.060;24.700;2023-07-30T18:06:34;5.32;;;4.00;;
6093;SDS011;19964;42.060;24.700;2023-07-30T18:09:02;4.63;;;3.50;;
6093;SDS011;19964;42.060;24.700;2023-07-30T18:11:29;4.03;;;3.75;;
6093;SDS011;19964;42.060;24.700;2023-07-30T18:13:56;3.70;;;3.47;;
6093;SDS011;19964;42.060;24.700;2023-07-30T18:16:23;4.20;;;3.85;;
6093;SDS011;19964;42.060;24.700;2023-07-30T18:18:50;4.32;;;3.92;;
6093;SDS011;19964;42.060;24.700;2023-07-30T18:21:18;4.38;;;3.45;;
6093;SDS011;19964;42.060;24.700;2023-07-30T18:23:45;4.13;;;3.83;;
6093;SDS011;19964;42.060;24.700;2023-07-30T18:26:13;3.67;;;3.38;;
6093;SDS011;19964;42.060;24.700;2023-07-30T18:28:40;4.22;;;3.83;;
6093;SDS011;19964;42.060;24.700;2023-07-30T18:31:07;3.95;;;3.67;;
6093;SDS011;19964;42.060;24.700;2023-07-30T18:33:34;4.85;;;4.05;;
6093;SDS011;19964;42.060;24.700;2023-07-30T18:36:01;4.65;;;3.90;;
6093;SDS011;19964;42.060;24.700;2023-07-30T18:38:28;4.22;;;3.92;;
6093;SDS011;19964;42.060;24.700;2023-07-30T18:40:55;4.05;;;3.63;;
6093;SDS011;19964;42.060;24.700;2023-07-30T18:43:24;3.85;;;3.65;;
6093;SDS011;19964;42.060;24.700;2023-07-30T18:45:51;4.55;;;4.15;;
6093;SDS011;19964;42.060;24.700;2023-07-30T18:48:18;3.95;;;3.65;;
6093;SDS011;19964;42.060;24.700;2023-07-30T18:50:46;4.40;;;4.10;;
6093;SDS011;19964;42.060;24.700;2023-07-30T18:53:14;3.90;;;3.60;;
6093;SDS011;19964;42.060;24.700;2023-07-30T18:55:41;4.20;;;3.80;;
6093;SDS011;19964;42.060;24.700;2023-07-30T18:58:08;4.47;;;4.07;;
6093;SDS011;19964;42.060;24.700;2023-07-30T19:00:36;4.20;;;3.90;;
6093;SDS011;19964;42.060;24.700;2023-07-30T19:03:03;4.57;;;3.72;;
6093;SDS011;19964;42.060;24.700;2023-07-30T19:05:30;3.83;;;3.63;;
6093;SDS011;19964;42.060;24.700;2023-07-30T19:07:57;4.18;;;3.88;;
6093;SDS011;19964;42.060;24.700;2023-07-30T19:10:27;4.50;;;3.85;;
6093;SDS011;19964;42.060;24.700;2023-07-30T19:12:54;4.68;;;4.28;;
6093;SDS011;19964;42.060;24.700;2023-07-30T19:15:21;5.03;;;3.95;;
6093;SDS011;19964;42.060;24.700;2023-07-30T19:17:50;4.53;;;4.10;;
6093;SDS011;19964;42.060;24.700;2023-07-30T19:20:17;4.32;;;4.13;;
6093;SDS011;19964;42.060;24.700;2023-07-30T19:22:44;5.63;;;4.00;;
6093;SDS011;19964;42.060;24.700;2023-07-30T19:25:11;4.38;;;4.07;;
6093;SDS011;19964;42.060;24.700;2023-07-30T19:27:38;4.57;;;4.28;;
6093;SDS011;19964;42.060;24.700;2023-07-30T19:30:06;4.75;;;4.43;;
6093;SDS011;19964;42.060;24.700;2023-07-30T19:32:33;4.55;;;4.25;;
6093;SDS011;19964;42.060;24.700;2023-07-30T19:35:04;5.00;;;4.53;;
6093;SDS011;19964;42.060;24.700;2023-07-30T19:37:31;5.32;;;4.93;;
6093;SDS011;19964;42.060;24.700;2023-07-30T19:39:58;5.10;;;4.80;;
6093;SDS011;19964;42.060;24.700;2023-07-30T19:42:26;6.47;;;4.50;;
6093;SDS011;19964;42.060;24.700;2023-07-30T19:44:53;4.80;;;4.40;;
6093;SDS011;19964;42.060;24.700;2023-07-30T19:47:20;4.88;;;4.40;;
6093;SDS011;19964;42.060;24.700;2023-07-30T19:49:49;4.47;;;4.03;;
6093;SDS011;19964;42.060;24.700;2023-07-30T19:52:17;4.85;;;4.07;;
6093;SDS011;19964;42.060;24.700;2023-07-30T19:54:44;6.75;;;4.28;;
6093;SDS011;19964;42.060;24.700;2023-07-30T19:57:11;5.47;;;4.05;;
6093;SDS011;19964;42.060;24.700;2023-07-30T19:59:38;4.80;;;4.45;;
6093;SDS011;19964;42.060;24.700;2023-07-30T20:02:05;4.93;;;4.43;;
6093;SDS011;19964;42.060;24.700;2023-07-30T20:04:32;4.85;;;4.30;;
6093;SDS011;19964;42.060;24.700;2023-07-30T20:06:59;4.90;;;4.60;;
6093;SDS011;19964;42.060;24.700;2023-07-30T20:09:27;5.53;;;4.45;;
6093;SDS011;19964;42.060;24.700;2023-07-30T20:11:54;4.68;;;4.28;;
6093;SDS011;19964;42.060;24.700;2023-07-30T20:14:21;4.30;;;3.90;;
6093;SDS011;19964;42.060;24.700;2023-07-30T20:16:48;4.63;;;4.32;;
6093;SDS011;19964;42.060;24.700;2023-07-30T20:19:15;5.20;;;4.70;;
6093;SDS011;19964;42.060;24.700;2023-07-30T20:21:42;6.53;;;4.30;;
6093;SDS011;19964;42.060;24.700;2023-07-30T20:24:09;5.07;;;4.53;;
6093;SDS011;19964;42.060;24.700;2023-07-30T20:26:38;5.05;;;4.60;;
6093;SDS011;19964;42.060;24.700;2023-07-30T20:29:06;5.28;;;4.10;;
6093;SDS011;19964;42.060;24.700;2023-07-30T20:31:33;4.45;;;4.15;;
6093;SDS011;19964;42.060;24.700;2023-07-30T20:34:01;5.07;;;4.57;;
6093;SDS011;19964;42.060;24.700;2023-07-30T20:36:28;5.50;;;4.82;;
6093;SDS011;19964;42.060;24.700;2023-07-30T20:38:55;4.78;;;4.47;;
6093;SDS011;19964;42.060;24.700;2023-07-30T20:41:22;4.68;;;4.38;;
6093;SDS011;19964;42.060;24.700;2023-07-30T20:43:53;4.90;;;4.50;;
6093;SDS011;19964;42.060;24.700;2023-07-30T20:46:21;5.45;;;5.00;;
6093;SDS011;19964;42.060;24.700;2023-07-30T20:48:49;4.68;;;4.30;;
6093;SDS011;19964;42.060;24.700;2023-07-30T20:51:16;5.05;;;4.57;;
6093;SDS011;19964;42.060;24.700;2023-07-30T20:53:44;6.97;;;4.68;;
6093;SDS011;19964;42.060;24.700;2023-07-30T20:56:12;4.80;;;4.40;;
6093;SDS011;19964;42.060;24.700;2023-07-30T20:58:39;4.63;;;4.22;;
6093;SDS011;19964;42.060;24.700;2023-07-30T21:01:08;5.10;;;4.60;;
6093;SDS011;19964;42.060;24.700;2023-07-30T21:03:36;5.55;;;5.05;;
6093;SDS011;19964;42.060;24.700;2023-07-30T21:06:03;5.55;;;5.05;;
6093;SDS011;19964;42.060;24.700;2023-07-30T21:08:30;6.25;;;4.90;;
6093;SDS011;19964;42.060;24.700;2023-07-30T21:10:57;5.07;;;4.65;;
6093;SDS011;19964;42.060;24.700;2023-07-30T21:13:24;6.25;;;5.05;;
6093;SDS011;19964;42.060;24.700;2023-07-30T21:15:51;5.22;;;4.72;;
6093;SDS011;19964;42.060;24.700;2023-07-30T21:18:20;5.20;;;4.72;;
6093;SDS011;19964;42.060;24.700;2023-07-30T21:20:47;4.93;;;4.63;;
6093;SDS011;19964;42.060;24.700;2023-07-30T21:23:14;7.22;;;5.20;;
6093;SDS011;19964;42.060;24.700;2023-07-30T21:25:41;8.82;;;4.93;;
6093;SDS011;19964;42.060;24.700;2023-07-30T21:28:08;5.00;;;4.70;;
6093;SDS011;19964;42.060;24.700;2023-07-30T21:30:36;5.15;;;4.68;;
6093;SDS011;19964;42.060;24.700;2023-07-30T21:33:03;5.22;;;4.80;;
6093;SDS011;19964;42.060;24.700;2023-07-30T21:35:31;5.72;;;5.15;;
6093;SDS011;19964;42.060;24.700;2023-07-30T21:37:58;6.10;;;4.65;;
6093;SDS011;19964;42.060;24.700;2023-07-30T21:40:25;6.40;;;4.60;;
6093;SDS011;19964;42.060;24.700;2023-07-30T21:42:52;4.88;;;4.47;;
6093;SDS011;19964;42.060;24.700;2023-07-30T21:45:19;5.50;;;5.10;;
6093;SDS011;19964;42.060;24.700;2023-07-30T21:47:46;5.32;;;4.93;;
6093;SDS011;19964;42.060;24.700;2023-07-30T21:50:17;5.45;;;4.95;;
6093;SDS011;19964;42.060;24.700;2023-07-30T21:52:46;5.32;;;4.93;;
6093;SDS011;19964;42.060;24.700;2023-07-30T21:55:13;5.78;;;5.25;;
6093;SDS011;19964;42.060;24.700;2023-07-30T21:57:40;5.60;;;5.10;;
6093;SDS011;19964;42.060;24.700;2023-07-30T22:00:07;4.97;;;4.68;;
6093;SDS011;19964;42.060;24.700;2023-07-30T22:02:35;8.68;;;5.25;;
6093;SDS011;19964;42.060;24.700;2023-07-30T22:05:02;5.70;;;5.30;;
6093;SDS011;19964;42.060;24.700;2023-07-30T22:07:30;5.25;;;4.88;;
6093;SDS011;19964;42.060;24.700;2023-07-30T22:09:58;6.85;;;5.60;;
6093;SDS011;19964;42.060;24.700;2023-07-30T22:12:25;5.50;;;5.10;;
6093;SDS011;19964;42.060;24.700;2023-07-30T22:14:52;6.10;;;5.60;;
6093;SDS011;19964;42.060;24.700;2023-07-30T22:17:19;6.10;;;5.57;;